Accueil
METAR-TAF:

METAR-TAF

Aéroports :

Jamshedpur, Inde

latitude: 22-48-49N, longitude: 086-10-05E, altitude: 146 m

Observation

Le bulletin a été fait il y a 2 heures et 9 minutes, à 12:00 UTC
Vent calme
Température 28°C
Humidité 42%
Pression 1010 hPa
Visibilité: 4000 m
Quelques nuages à une hauteur de 1800 ft
brume sèche

METAR: VEJS 291200Z 00000KT 4000 HZ FEW018 28/14 Q1010

Heure: 19:39 (14:09 UTC)

Prévision

Le bulletin a été fait il y a 3 heures et 9 minutes, à 11:00 UTC
Prévision valable du 29 à 12 UTC au 29 à 21 UTC
Vent 5 kt de nord-ouest
Visibilité: 3000 m
Quelques nuages à une hauteur de 1800 ft
Nuages épars à une hauteur de 10000 ft
brume sèche
Evoluant progressivement
du 29 à 16 UTC au 29 à 18 UTC
Vent kt de nord
Visibilité: 2000 m
brume sèche

TAF: VEJS 291100Z 2912/2921 32005KT 3000 HZ FEW018 SCT100 BECMG 2916/2918 00000KT 2000 HZ NSC

Observations et prévisions météorologiques de plus de 4000 aéroports (messages METAR et TAF).

Les stations disponibles sont représentées par des disques jaunes et rouges sur la carte.

Passer la souris dessus pour voir le nom de la station.

Cliquer dessus pour voir les observations et prévisions météorologiques.

Pour changer de carte: cliquez sur les boutons verts avec une croix noire pour zoomer, sur le bouton vert avec un tiret pour effectuer un zoom arrière, ou sur les flèches vertes pour les cartes adjacentes.


METAR-TAF: